createdAt,value
2022-11-13T00:01:54.735Z,6.20
2022-11-13T00:04:40.193Z,6.20
2022-11-13T00:07:27.231Z,6.10
2022-11-13T00:10:13.384Z,6.10
2022-11-13T00:12:58.894Z,6.10
2022-11-13T00:15:44.568Z,6.10
2022-11-13T00:18:34.512Z,6.10
2022-11-13T00:21:23.393Z,6.00
2022-11-13T00:24:09.460Z,6.00
2022-11-13T00:26:55.152Z,6.00
2022-11-13T00:29:40.927Z,6.00
2022-11-13T00:32:26.600Z,6.00
2022-11-13T00:35:13.317Z,6.00
2022-11-13T00:37:59.098Z,5.90
2022-11-13T00:40:45.463Z,5.90
2022-11-13T00:43:31.520Z,5.90
2022-11-13T00:46:17.048Z,5.90
2022-11-13T00:49:03.482Z,5.90
2022-11-13T00:51:56.738Z,5.90
2022-11-13T00:54:42.237Z,5.90
2022-11-13T00:57:27.822Z,5.90
2022-11-13T01:00:13.390Z,5.90
2022-11-13T01:02:58.873Z,5.90
2022-11-13T01:05:47.245Z,5.90
2022-11-13T01:08:34.212Z,5.90
2022-11-13T01:11:24.979Z,6.00
2022-11-13T01:14:10.377Z,6.00
2022-11-13T01:16:56.114Z,6.00
2022-11-13T01:19:41.876Z,6.00
2022-11-13T01:22:30.141Z,6.00
2022-11-13T01:25:18.003Z,6.00
2022-11-13T01:28:04.229Z,6.00
2022-11-13T01:30:49.736Z,6.00
2022-11-13T01:33:35.434Z,6.00
2022-11-13T01:36:24.406Z,6.00
2022-11-13T01:39:11.035Z,6.00
2022-11-13T01:41:57.790Z,6.00
2022-11-13T01:44:49.788Z,5.90
2022-11-13T01:47:36.462Z,5.90
2022-11-13T01:50:22.094Z,5.90
2022-11-13T01:56:19.747Z,5.90
2022-11-13T01:59:14.021Z,5.90
2022-11-13T02:01:59.931Z,5.90
2022-11-13T02:04:46.561Z,5.90
2022-11-13T02:07:31.953Z,5.90
2022-11-13T02:10:18.018Z,5.90
2022-11-13T02:13:03.677Z,5.90
2022-11-13T02:15:51.626Z,5.90
2022-11-13T02:18:42.318Z,5.90
2022-11-13T02:21:41.200Z,6.00
2022-11-13T02:24:33.780Z,6.00
2022-11-13T02:27:30.428Z,6.00
2022-11-13T02:30:23.614Z,6.00
2022-11-13T02:33:29.080Z,6.00
2022-11-13T02:36:15.707Z,6.00
2022-11-13T02:39:05.887Z,6.00
2022-11-13T02:41:52.604Z,6.10
2022-11-13T02:44:40.915Z,6.10
2022-11-13T02:47:28.872Z,6.10
2022-11-13T02:50:20.287Z,6.10
2022-11-13T02:53:06.507Z,6.20
2022-11-13T02:55:54.691Z,6.20
2022-11-13T03:02:34.630Z,6.20
2022-11-13T03:05:20.267Z,6.20
2022-11-13T03:08:07.277Z,6.20
2022-11-13T03:10:55.502Z,6.20
2022-11-13T03:13:40.771Z,6.20
2022-11-13T03:16:28.213Z,6.20
2022-11-13T03:19:14.796Z,6.20
2022-11-13T03:22:01.183Z,6.30
2022-11-13T03:24:46.902Z,6.30
2022-11-13T03:27:32.752Z,6.20
2022-11-13T03:30:18.700Z,6.30
2022-11-13T03:33:16.453Z,6.20
2022-11-13T03:36:04.736Z,6.20
2022-11-13T03:38:51.152Z,6.20
2022-11-13T03:41:36.902Z,6.20
2022-11-13T03:44:22.190Z,6.20
2022-11-13T03:47:08.144Z,6.20
2022-11-13T03:49:55.063Z,6.20
2022-11-13T03:52:40.831Z,6.20
2022-11-13T03:55:26.580Z,6.20
2022-11-13T03:58:12.195Z,6.20
2022-11-13T04:01:00.853Z,6.20
2022-11-13T04:03:46.075Z,6.20
2022-11-13T04:06:32.917Z,6.20
2022-11-13T04:09:18.586Z,6.20
2022-11-13T04:12:04.365Z,6.30
2022-11-13T04:14:49.830Z,6.20
2022-11-13T04:17:37.268Z,6.20
2022-11-13T04:20:23.054Z,6.20
2022-11-13T04:23:10.068Z,6.20
2022-11-13T04:25:56.447Z,6.20
2022-11-13T04:28:41.911Z,6.20
2022-11-13T04:31:27.612Z,6.20
2022-11-13T04:34:13.184Z,6.10
2022-11-13T04:36:59.363Z,6.10
2022-11-13T04:39:46.069Z,6.10
2022-11-13T04:42:31.540Z,6.10
2022-11-13T04:45:19.940Z,6.10
2022-11-13T04:48:05.541Z,6.00
2022-11-13T04:50:51.264Z,6.00
2022-11-13T04:53:37.010Z,6.00
2022-11-13T04:56:24.129Z,6.00
2022-11-13T04:59:10.637Z,6.00
2022-11-13T05:01:56.628Z,6.00
2022-11-13T05:04:46.993Z,6.00
2022-11-13T05:07:34.567Z,6.00
2022-11-13T05:10:22.764Z,6.00
2022-11-13T05:13:19.488Z,6.00
2022-11-13T05:16:11.794Z,6.00
2022-11-13T05:19:01.983Z,6.00
2022-11-13T05:21:50.843Z,5.90
2022-11-13T05:24:38.038Z,5.90
2022-11-13T05:27:23.817Z,5.90
2022-11-13T05:30:11.509Z,5.90
2022-11-13T05:32:56.933Z,5.90
2022-11-13T05:35:42.395Z,5.90
2022-11-13T05:38:29.568Z,5.90
2022-11-13T05:41:20.908Z,5.90
2022-11-13T05:44:12.213Z,5.90
2022-11-13T05:47:00.357Z,5.90
2022-11-13T05:49:49.376Z,5.90
2022-11-13T05:52:34.743Z,5.90
2022-11-13T05:55:23.205Z,5.90
2022-11-13T05:58:10.759Z,5.90
2022-11-13T06:01:10.322Z,5.90
2022-11-13T06:07:15.977Z,6.00
2022-11-13T06:10:07.584Z,6.00
2022-11-13T06:13:01.757Z,6.00
2022-11-13T06:16:02.136Z,6.00
2022-11-13T06:19:00.116Z,6.00
2022-11-13T06:21:56.046Z,6.00
2022-11-13T06:24:51.680Z,6.00
2022-11-13T06:27:37.169Z,6.00
2022-11-13T06:30:24.216Z,6.00
2022-11-13T06:33:09.861Z,6.00
2022-11-13T06:35:56.822Z,6.10
2022-11-13T06:38:43.839Z,6.10
2022-11-13T06:41:38.655Z,6.10
2022-11-13T06:44:28.306Z,6.10
2022-11-13T06:47:20.891Z,6.10
2022-11-13T06:50:07.977Z,6.20
2022-11-13T06:52:55.122Z,6.20
2022-11-13T06:55:43.782Z,6.20
2022-11-13T06:58:38.392Z,6.20
2022-11-13T07:01:26.173Z,6.30
2022-11-13T07:04:12.592Z,6.30
2022-11-13T07:07:03.625Z,6.30
2022-11-13T07:10:07.974Z,6.40
2022-11-13T07:12:54.793Z,6.40
2022-11-13T07:15:44.552Z,6.50
2022-11-13T07:18:30.727Z,6.50
2022-11-13T07:21:16.481Z,6.50
2022-11-13T07:24:06.565Z,6.60
2022-11-13T07:27:00.388Z,6.60
2022-11-13T07:29:52.355Z,6.70
2022-11-13T07:32:44.041Z,6.80
2022-11-13T07:35:41.335Z,6.80
2022-11-13T07:38:35.313Z,6.90
2022-11-13T07:41:23.853Z,7.00
2022-11-13T07:44:12.906Z,7.10
2022-11-13T07:47:06.247Z,7.20
2022-11-13T07:49:51.863Z,7.20
2022-11-13T07:52:37.280Z,7.30
2022-11-13T07:55:23.187Z,7.40
2022-11-13T07:58:10.944Z,7.50
2022-11-13T08:01:03.770Z,7.50
2022-11-13T08:03:49.156Z,7.70
2022-11-13T08:06:37.206Z,7.70
2022-11-13T08:09:22.707Z,7.80
2022-11-13T08:12:08.297Z,7.80
2022-11-13T08:14:53.963Z,7.90
2022-11-13T08:17:41.642Z,7.90
2022-11-13T08:20:29.647Z,8.00
2022-11-13T08:23:15.019Z,8.10
2022-11-13T08:26:05.720Z,8.10
2022-11-13T08:28:51.412Z,8.20
2022-11-13T08:31:37.090Z,8.20
2022-11-13T08:34:24.408Z,8.30
2022-11-13T08:37:09.987Z,8.30
2022-11-13T08:39:58.788Z,8.40
2022-11-13T08:43:01.270Z,8.50
2022-11-13T08:45:54.263Z,8.50
2022-11-13T08:48:45.271Z,8.60
2022-11-13T08:51:42.194Z,8.60
2022-11-13T08:54:32.110Z,8.50
2022-11-13T08:57:25.381Z,8.50
2022-11-13T09:00:17.383Z,8.50
2022-11-13T09:03:06.047Z,8.50
2022-11-13T09:05:52.424Z,8.50
2022-11-13T09:08:39.118Z,8.50
2022-11-13T09:11:25.204Z,8.40
2022-11-13T09:14:12.243Z,8.50
2022-11-13T09:16:57.899Z,8.50
2022-11-13T09:19:44.506Z,8.60
2022-11-13T09:22:29.779Z,8.80
2022-11-13T09:25:16.730Z,8.80
2022-11-13T09:28:06.795Z,8.90
2022-11-13T09:31:04.415Z,9.00
2022-11-13T09:33:49.832Z,8.90
2022-11-13T09:36:42.122Z,8.80
2022-11-13T09:39:34.398Z,8.80
2022-11-13T09:42:34.352Z,8.80
2022-11-13T09:45:28.401Z,8.70
2022-11-13T09:48:31.183Z,8.70
2022-11-13T09:51:23.309Z,8.70
2022-11-13T09:54:14.096Z,8.80
2022-11-13T09:57:28.585Z,8.80
2022-11-13T10:00:18.727Z,8.80
2022-11-13T10:07:02.698Z,8.80
2022-11-13T10:10:19.786Z,8.80
2022-11-13T10:13:15.643Z,8.90
2022-11-13T10:16:17.928Z,8.90
2022-11-13T10:19:19.188Z,8.90
2022-11-13T10:22:36.807Z,8.80
2022-11-13T10:25:31.267Z,8.70
2022-11-13T10:28:49.557Z,8.70
2022-11-13T10:31:48.220Z,8.70
2022-11-13T10:34:33.799Z,8.70
2022-11-13T10:37:50.350Z,8.80
2022-11-13T10:40:38.808Z,8.80
2022-11-13T10:43:26.786Z,8.90
2022-11-13T10:46:19.894Z,8.90
2022-11-13T10:49:18.966Z,8.80
2022-11-13T10:52:09.965Z,8.80
2022-11-13T10:55:15.748Z,8.70
2022-11-13T11:01:15.749Z,8.70
2022-11-13T11:04:04.556Z,8.70
2022-11-13T11:09:59.199Z,8.70
2022-11-13T11:12:52.251Z,8.80
2022-11-13T11:15:44.733Z,8.80
2022-11-13T11:18:36.902Z,8.80
2022-11-13T11:21:30.072Z,8.80
2022-11-13T11:24:23.557Z,8.80
2022-11-13T11:27:18.347Z,8.80
2022-11-13T11:30:22.797Z,8.80
2022-11-13T11:33:18.959Z,8.80
2022-11-13T11:36:17.578Z,8.80
2022-11-13T11:39:27.561Z,8.80
2022-11-13T11:42:28.813Z,8.90
2022-11-13T11:45:23.968Z,8.90
2022-11-13T11:48:14.948Z,8.90
2022-11-13T11:51:11.648Z,9.00
2022-11-13T11:54:11.893Z,9.00
2022-11-13T11:57:06.434Z,9.10
2022-11-13T12:00:06.137Z,9.00
2022-11-13T12:03:35.837Z,9.10
2022-11-13T12:06:37.708Z,9.00
2022-11-13T12:09:29.272Z,9.10
2022-11-13T12:12:29.642Z,9.10
2022-11-13T12:15:24.373Z,9.10
2022-11-13T12:18:19.578Z,9.10
2022-11-13T12:21:21.676Z,9.10
2022-11-13T12:24:49.969Z,9.10
2022-11-13T12:27:45.562Z,9.00
2022-11-13T12:30:46.268Z,9.00
2022-11-13T12:33:44.669Z,9.00
2022-11-13T12:36:31.195Z,9.00
2022-11-13T12:39:38.718Z,9.00
2022-11-13T12:42:33.624Z,9.10
2022-11-13T12:45:48.868Z,9.10
2022-11-13T12:48:37.172Z,9.10
2022-11-13T12:51:22.866Z,9.10
2022-11-13T12:54:10.569Z,9.10
2022-11-13T12:57:27.167Z,9.20
2022-11-13T13:00:29.742Z,9.20
2022-11-13T13:03:43.774Z,9.30
2022-11-13T13:06:52.029Z,9.30
2022-11-13T13:10:01.547Z,9.40
2022-11-13T13:12:58.584Z,9.40
2022-11-13T13:15:54.844Z,9.40
2022-11-13T13:18:40.944Z,9.40
2022-11-13T13:21:26.865Z,9.40
2022-11-13T13:24:30.178Z,9.40
2022-11-13T13:27:24.448Z,9.50
2022-11-13T13:30:19.711Z,9.40
2022-11-13T13:33:21.986Z,9.40
2022-11-13T13:36:22.779Z,9.40
2022-11-13T13:39:26.613Z,9.40
2022-11-13T13:46:01.297Z,9.50
2022-11-13T13:48:52.170Z,9.50
2022-11-13T13:51:42.496Z,9.50
2022-11-13T13:54:32.823Z,9.50
2022-11-13T13:57:19.681Z,9.50
2022-11-13T14:00:12.720Z,9.50
2022-11-13T14:02:58.253Z,9.50
2022-11-13T14:05:45.402Z,9.50
2022-11-13T14:08:30.889Z,9.50
2022-11-13T14:11:19.724Z,9.40
2022-11-13T14:14:09.871Z,9.40
2022-11-13T14:16:59.186Z,9.40
2022-11-13T14:19:50.582Z,9.50
2022-11-13T14:22:38.930Z,9.50
2022-11-13T14:25:29.546Z,9.40
2022-11-13T14:28:18.651Z,9.40
2022-11-13T14:31:07.717Z,9.40
2022-11-13T14:33:55.032Z,9.40
2022-11-13T14:36:40.712Z,9.40
2022-11-13T14:39:31.828Z,9.40
2022-11-13T14:42:21.913Z,9.40
2022-11-13T14:45:18.151Z,9.40
2022-11-13T14:48:19.912Z,9.40
2022-11-13T14:51:21.492Z,9.40
2022-11-13T14:54:33.788Z,9.40
2022-11-13T14:57:27.048Z,9.40
2022-11-13T15:00:16.292Z,9.40
2022-11-13T15:03:06.218Z,9.40
2022-11-13T15:05:51.946Z,9.40
2022-11-13T15:08:37.796Z,9.40
2022-11-13T15:11:26.777Z,9.40
2022-11-13T15:14:13.986Z,9.50
2022-11-13T15:16:59.685Z,9.50
2022-11-13T15:19:47.979Z,9.50
2022-11-13T15:22:33.341Z,9.50
2022-11-13T15:25:21.739Z,9.50
2022-11-13T15:28:09.612Z,9.50
2022-11-13T15:30:55.147Z,9.60
2022-11-13T15:33:41.725Z,9.50
2022-11-13T15:36:27.606Z,9.60
2022-11-13T15:39:22.988Z,9.50
2022-11-13T15:42:17.482Z,9.60
2022-11-13T15:45:06.052Z,9.60
2022-11-13T15:47:51.316Z,9.60
2022-11-13T15:50:38.019Z,9.60
2022-11-13T15:53:23.331Z,9.60
2022-11-13T15:56:08.558Z,9.60
2022-11-13T15:59:00.675Z,9.60
2022-11-13T16:01:47.853Z,9.60
2022-11-13T16:04:54.635Z,9.60
2022-11-13T16:07:42.189Z,9.70
2022-11-13T16:10:28.147Z,9.70
2022-11-13T16:13:14.072Z,9.70
2022-11-13T16:16:01.037Z,9.70
2022-11-13T16:18:48.055Z,9.70
2022-11-13T16:21:33.871Z,9.70
2022-11-13T16:24:22.858Z,9.70
2022-11-13T16:27:15.815Z,9.70
2022-11-13T16:30:06.591Z,9.70
2022-11-13T16:32:52.761Z,9.70
2022-11-13T16:35:40.174Z,9.70
2022-11-13T16:38:25.802Z,9.70
2022-11-13T16:41:14.116Z,9.80
2022-11-13T16:43:59.760Z,9.80
2022-11-13T16:46:45.811Z,9.80
2022-11-13T16:49:32.047Z,9.80
2022-11-13T16:52:19.159Z,9.80
2022-11-13T16:55:06.640Z,9.90
2022-11-13T16:57:52.704Z,9.80
2022-11-13T17:00:38.414Z,9.90
2022-11-13T17:03:24.120Z,9.90
2022-11-13T17:06:21.782Z,9.90
2022-11-13T17:09:10.312Z,9.90
2022-11-13T17:11:55.675Z,9.90
2022-11-13T17:14:41.101Z,9.90
2022-11-13T17:17:26.624Z,10.00
2022-11-13T17:20:13.331Z,10.00
2022-11-13T17:22:58.889Z,10.00
2022-11-13T17:25:45.888Z,10.00
2022-11-13T17:28:31.906Z,10.00
2022-11-13T17:31:18.011Z,10.10
2022-11-13T17:34:03.459Z,10.10
2022-11-13T17:36:49.183Z,10.10
2022-11-13T17:39:34.433Z,10.10
2022-11-13T17:42:21.448Z,10.10
2022-11-13T17:45:09.910Z,10.10
2022-11-13T17:47:56.097Z,10.10
2022-11-13T17:50:41.565Z,10.10
2022-11-13T17:53:27.691Z,10.10
2022-11-13T17:56:14.408Z,10.20
2022-11-13T18:02:12.655Z,10.20
2022-11-13T18:04:58.496Z,10.20
2022-11-13T18:07:43.933Z,10.20
2022-11-13T18:10:29.664Z,10.30
2022-11-13T18:13:15.394Z,10.30
2022-11-13T18:16:06.756Z,10.30
2022-11-13T18:18:54.758Z,10.30
2022-11-13T18:21:40.904Z,10.30
2022-11-13T18:24:26.175Z,10.30
2022-11-13T18:27:14.230Z,10.30
2022-11-13T18:29:59.507Z,10.30
2022-11-13T18:32:46.577Z,10.30
2022-11-13T18:35:32.577Z,10.30
2022-11-13T18:38:17.985Z,10.40
2022-11-13T18:41:06.423Z,10.40
2022-11-13T18:43:52.377Z,10.40
2022-11-13T18:46:37.710Z,10.40
2022-11-13T18:49:24.536Z,10.40
2022-11-13T18:52:10.475Z,10.40
2022-11-13T18:54:55.891Z,10.40
2022-11-13T18:57:41.883Z,10.40
2022-11-13T19:00:27.483Z,10.40
2022-11-13T19:03:12.873Z,10.40
2022-11-13T19:05:59.727Z,10.40
2022-11-13T19:08:46.532Z,10.40
2022-11-13T19:11:32.773Z,10.40
2022-11-13T19:14:18.866Z,10.40
2022-11-13T19:17:04.790Z,10.40
2022-11-13T19:19:50.512Z,10.40
2022-11-13T19:22:38.035Z,10.40
2022-11-13T19:25:23.846Z,10.40
2022-11-13T19:28:09.563Z,10.40
2022-11-13T19:30:55.284Z,10.40
2022-11-13T19:33:41.359Z,10.40
2022-11-13T19:36:29.411Z,10.40
2022-11-13T19:39:16.496Z,10.40
2022-11-13T19:42:01.887Z,10.40
2022-11-13T19:44:47.559Z,10.40
2022-11-13T19:47:33.240Z,10.40
2022-11-13T19:50:18.801Z,10.40
2022-11-13T19:53:06.747Z,10.40
2022-11-13T19:55:57.137Z,10.40
2022-11-13T19:58:43.513Z,10.40
2022-11-13T20:01:29.475Z,10.40
2022-11-13T20:04:16.816Z,10.40
2022-11-13T20:07:02.698Z,10.40
2022-11-13T20:09:48.278Z,10.40
2022-11-13T20:12:35.125Z,10.40
2022-11-13T20:15:20.724Z,10.40
2022-11-13T20:18:06.431Z,10.40
2022-11-13T20:20:54.656Z,10.40
2022-11-13T20:23:47.028Z,10.40
2022-11-13T20:26:32.751Z,10.30
2022-11-13T20:29:19.656Z,10.30
2022-11-13T20:32:05.184Z,10.30
2022-11-13T20:34:51.046Z,10.30
2022-11-13T20:37:36.629Z,10.30
2022-11-13T20:40:22.602Z,10.20
2022-11-13T20:43:08.120Z,10.30
2022-11-13T20:46:03.421Z,10.30
2022-11-13T20:48:49.203Z,10.30
2022-11-13T20:51:34.957Z,10.30
2022-11-13T20:54:20.613Z,10.30
2022-11-13T20:57:06.107Z,10.30
2022-11-13T20:59:51.712Z,10.30
2022-11-13T21:02:38.638Z,10.30
2022-11-13T21:05:24.293Z,10.30
2022-11-13T21:08:11.259Z,10.30
2022-11-13T21:10:59.972Z,10.30
2022-11-13T21:13:46.217Z,10.20
2022-11-13T21:16:31.881Z,10.20
2022-11-13T21:19:18.900Z,10.20
2022-11-13T21:22:04.485Z,10.20
2022-11-13T21:24:50.102Z,10.20
2022-11-13T21:27:35.872Z,10.20
2022-11-13T21:30:21.722Z,10.20
2022-11-13T21:33:07.335Z,10.20
2022-11-13T21:35:54.294Z,10.20
2022-11-13T21:38:40.692Z,10.20
2022-11-13T21:41:26.147Z,10.20
2022-11-13T21:44:12.170Z,10.10
2022-11-13T21:46:57.808Z,10.10
2022-11-13T21:49:43.489Z,10.10
2022-11-13T21:52:30.328Z,10.10
2022-11-13T21:55:15.766Z,10.10
2022-11-13T22:01:13.357Z,10.10
2022-11-13T22:03:58.895Z,10.10
2022-11-13T22:06:48.224Z,10.00
2022-11-13T22:09:35.539Z,10.00
2022-11-13T22:12:21.142Z,10.00
2022-11-13T22:15:12.644Z,10.00
2022-11-13T22:17:58.211Z,9.90
2022-11-13T22:20:43.865Z,10.00
2022-11-13T22:23:30.031Z,10.00
2022-11-13T22:26:18.796Z,10.00
2022-11-13T22:29:05.686Z,10.00
2022-11-13T22:31:51.391Z,9.90
2022-11-13T22:34:36.607Z,9.90
2022-11-13T22:37:22.468Z,9.90
2022-11-13T22:40:10.140Z,9.90
2022-11-13T22:42:57.173Z,9.90
2022-11-13T22:45:43.183Z,9.90
2022-11-13T22:48:29.054Z,10.00
2022-11-13T22:51:18.505Z,10.00
2022-11-13T22:54:06.721Z,10.00
2022-11-13T22:56:52.341Z,10.00
2022-11-13T22:59:39.157Z,10.00
2022-11-13T23:02:24.801Z,9.90
2022-11-13T23:05:10.048Z,10.00
2022-11-13T23:07:55.584Z,10.00
2022-11-13T23:10:41.219Z,9.90
2022-11-13T23:13:26.955Z,9.90
2022-11-13T23:16:14.286Z,9.90
2022-11-13T23:19:01.376Z,9.90
2022-11-13T23:21:46.850Z,9.90
2022-11-13T23:24:32.584Z,9.90
2022-11-13T23:27:18.270Z,9.90
2022-11-13T23:30:04.875Z,9.90
2022-11-13T23:32:51.605Z,9.90
2022-11-13T23:35:37.286Z,9.90
2022-11-13T23:38:23.270Z,9.90
2022-11-13T23:41:10.229Z,9.80
2022-11-13T23:44:11.776Z,9.80
2022-11-13T23:46:57.462Z,9.70
2022-11-13T23:49:44.367Z,9.70
2022-11-13T23:52:30.146Z,9.60
2022-11-13T23:55:16.478Z,9.60
2022-11-13T23:58:05.618Z,9.50
